Time;durP1;ratioP1;P1;durP2;ratioP2;P2;SDS_P1;SDS_P2;PMS_P1;PMS_P2;Temp;Humidity;BMP_temperature;BMP_pressure;BME280_temperature;BME280_humidity;BME280_pressure;Samples;Min_cycle;Max_cycle;Signal;HPM_P1;HPM_P2
2023/12/17 00:02:02;;;;;;;11.38;1.90;;;28.80;84.70;;;;;;5041486;28;20627;-70
2023/12/17 00:04:29;;;;;;;11.25;2.15;;;28.50;84.10;;;;;;5052284;28;20486;-70
2023/12/17 00:06:58;;;;;;;14.55;2.70;;;28.10;85.20;;;;;;5050605;28;20045;-70
2023/12/17 00:09:26;;;;;;;9.52;2.00;;;28.30;84.90;;;;;;5055383;28;20017;-72
2023/12/17 00:11:53;;;;;;;14.57;3.05;;;28.60;84.10;;;;;;5027726;28;20125;-70
2023/12/17 00:14:21;;;;;;;13.00;2.80;;;28.70;84.00;;;;;;5056304;28;20021;-71
2023/12/17 00:16:48;;;;;;;11.27;2.40;;;29.40;84.20;;;;;;5054188;28;20415;-70
2023/12/17 00:19:16;;;;;;;11.90;1.92;;;29.50;81.60;;;;;;5052384;28;20032;-71
2023/12/17 00:21:43;;;;;;;15.88;2.88;;;28.80;82.90;;;;;;5054958;28;20041;-71
2023/12/17 00:24:11;;;;;;;7.85;1.80;;;29.10;82.50;;;;;;5060128;28;20036;-71
2023/12/17 00:26:39;;;;;;;14.15;3.60;;;29.50;81.00;;;;;;5054832;28;20482;-69
2023/12/17 00:29:06;;;;;;;14.23;2.30;;;30.00;80.20;;;;;;5058568;28;20413;-70
2023/12/17 00:31:34;;;;;;;9.80;1.83;;;30.20;80.70;;;;;;5059638;28;20087;-70
2023/12/17 00:34:01;;;;;;;14.82;2.75;;;30.00;79.10;;;;;;5055180;28;20060;-70
2023/12/17 00:36:28;;;;;;;13.77;2.30;;;29.60;80.10;;;;;;5061200;28;20476;-70
2023/12/17 00:38:56;;;;;;;12.52;2.35;;;29.20;81.50;;;;;;5059802;28;20032;-71
2023/12/17 00:41:23;;;;;;;15.23;2.35;;;28.90;82.20;;;;;;5051945;28;20017;-72
2023/12/17 00:43:51;;;;;;;13.05;2.25;;;28.90;82.80;;;;;;5056991;28;20036;-70
2023/12/17 00:46:18;;;;;;;13.13;2.22;;;28.90;82.00;;;;;;5048779;28;20082;-70
2023/12/17 00:49:30;;;;;;;14.27;2.05;;;29.70;80.70;;;;;;5049644;28;20036;-72
2023/12/17 00:51:57;;;;;;;11.30;2.05;;;30.30;80.00;;;;;;5014616;28;20482;-71
2023/12/17 00:54:25;;;;;;;11.18;2.58;;;30.90;78.40;;;;;;5028277;28;20056;-71
2023/12/17 00:56:52;;;;;;;11.85;2.30;;;30.90;77.10;;;;;;5030085;28;20034;-70
2023/12/17 00:59:19;;;;;;;12.13;2.50;;;31.40;76.90;;;;;;5028774;28;20033;-72
2023/12/17 01:01:47;;;;;;;13.63;2.47;;;31.60;76.90;;;;;;5015128;28;20517;-70
2023/12/17 01:04:14;;;;;;;10.23;2.13;;;31.90;74.50;;;;;;5028991;28;20029;-70
2023/12/17 01:06:42;;;;;;;9.35;2.30;;;31.70;73.60;;;;;;5023100;28;20528;-71
2023/12/17 01:09:10;;;;;;;12.15;2.70;;;32.00;73.00;;;;;;5013305;28;20041;-70
2023/12/17 01:11:38;;;;;;;10.20;2.20;;;32.20;73.20;;;;;;5030406;28;20036;-71
2023/12/17 01:14:05;;;;;;;11.75;2.78;;;32.00;72.50;;;;;;5029261;28;20493;-69
2023/12/17 01:16:32;;;;;;;13.02;3.17;;;31.60;72.30;;;;;;5013243;28;20072;-72
2023/12/17 01:19:00;;;;;;;10.73;3.10;;;30.30;74.60;;;;;;5029056;28;20494;-71
2023/12/17 01:21:27;;;;;;;11.27;2.40;;;30.00;75.90;;;;;;5010572;28;20037;-72
2023/12/17 01:23:57;;;;;;;14.20;2.85;;;30.50;76.80;;;;;;5028616;28;20029;-74
2023/12/17 01:26:26;;;;;;;14.20;3.47;;;30.40;74.70;;;;;;5012484;28;20037;-73
2023/12/17 01:28:54;;;;;;;11.00;1.98;;;30.30;74.20;;;;;;5028638;28;20025;-72
2023/12/17 01:31:21;;;;;;;12.55;2.53;;;30.20;75.80;;;;;;5015427;28;20033;-72
2023/12/17 01:33:49;;;;;;;12.23;2.75;;;30.20;76.20;;;;;;5012459;28;20025;-72
2023/12/17 01:36:16;;;;;;;11.25;2.17;;;30.10;76.10;;;;;;5025011;28;20079;-73
2023/12/17 01:38:44;;;;;;;13.23;3.03;;;30.00;75.40;;;;;;5027656;28;20086;-73
2023/12/17 01:41:11;;;;;;;10.88;2.97;;;29.80;76.10;;;;;;5019905;28;20441;-75
2023/12/17 01:43:39;;;;;;;14.35;2.65;;;29.80;76.20;;;;;;5027201;28;20574;-75
2023/12/17 01:46:06;;;;;;;18.20;3.03;;;30.40;75.30;;;;;;5011926;28;20036;-71
2023/12/17 01:48:34;;;;;;;9.70;1.70;;;31.10;75.40;;;;;;5027044;28;20025;-72
2023/12/17 01:51:02;;;;;;;10.25;2.97;;;31.30;74.20;;;;;;5016411;28;20099;-72
2023/12/17 01:53:30;;;;;;;15.15;2.40;;;31.00;74.00;;;;;;5037731;28;20112;-71
2023/12/17 01:55:57;;;;;;;10.63;2.22;;;30.80;73.60;;;;;;5008300;28;20032;-71
2023/12/17 01:58:25;;;;;;;8.45;2.58;;;30.60;73.60;;;;;;5033230;28;20135;-71
2023/12/17 02:00:52;;;;;;;12.05;2.38;;;30.30;74.70;;;;;;5006757;28;20475;-71
2023/12/17 02:03:19;;;;;;;13.43;2.75;;;30.00;75.30;;;;;;5027259;28;20040;-72
2023/12/17 02:05:47;;;;;;;8.93;2.05;;;29.70;75.50;;;;;;5020968;28;22658;-74
2023/12/17 02:08:14;;;;;;;7.00;1.83;;;29.80;75.90;;;;;;5037084;28;20135;-72
2023/12/17 02:10:42;;;;;;;11.00;2.40;;;29.70;75.50;;;;;;5020336;28;20041;-73
2023/12/17 02:13:10;;;;;;;9.45;2.55;;;29.60;75.70;;;;;;5017646;28;20041;-73
2023/12/17 02:15:38;;;;;;;11.48;3.03;;;29.60;76.00;;;;;;5037477;28;20034;-72
2023/12/17 02:18:06;;;;;;;13.48;2.00;;;29.60;76.70;;;;;;5030162;28;20025;-72
2023/12/17 02:20:36;;;;;;;10.77;2.45;;;29.70;76.20;;;;;;5011035;28;20017;-73
2023/12/17 02:23:05;;;;;;;12.02;2.38;;;29.60;76.40;;;;;;5017527;28;20025;-72
2023/12/17 02:25:32;;;;;;;16.73;2.83;;;29.60;76.30;;;;;;5029409;28;20026;-72
2023/12/17 02:28:00;;;;;;;11.75;2.17;;;29.60;76.10;;;;;;5036946;28;20120;-73
2023/12/17 02:30:27;;;;;;;11.77;2.20;;;29.40;75.30;;;;;;5034332;28;20017;-72
2023/12/17 02:32:55;;;;;;;12.65;2.55;;;28.90;76.70;;;;;;5032896;28;20025;-72
2023/12/17 02:35:22;;;;;;;13.27;2.20;;;29.00;76.90;;;;;;5006413;28;20041;-72
2023/12/17 02:37:50;;;;;;;9.60;2.45;;;29.50;77.30;;;;;;5013193;28;20231;-73
2023/12/17 02:40:17;;;;;;;11.13;2.15;;;30.10;75.20;;;;;;5028642;28;20029;-72
2023/12/17 02:42:45;;;;;;;12.02;2.58;;;30.60;74.70;;;;;;5020719;28;20125;-72
2023/12/17 02:45:13;;;;;;;9.63;2.20;;;30.60;73.90;;;;;;5024274;28;20093;-72
2023/12/17 02:47:40;;;;;;;7.88;2.05;;;30.50;73.50;;;;;;5011194;28;20045;-73
2023/12/17 02:50:08;;;;;;;11.15;2.60;;;30.10;73.50;;;;;;5027805;28;20053;-73
2023/12/17 02:52:39;;;;;;;8.70;2.30;;;30.10;73.60;;;;;;5046242;28;20102;-71
2023/12/17 02:55:09;;;;;;;11.60;2.40;;;30.40;74.20;;;;;;5054780;28;20086;-71
2023/12/17 02:57:36;;;;;;;6.90;2.03;;;30.40;72.60;;;;;;5046554;28;20466;-72
2023/12/17 03:00:04;;;;;;;11.63;2.65;;;30.10;72.20;;;;;;5056227;28;20035;-71
2023/12/17 03:02:31;;;;;;;15.05;2.50;;;30.10;73.20;;;;;;5057470;28;20024;-71
2023/12/17 03:04:59;;;;;;;13.82;2.88;;;30.70;71.90;;;;;;5058317;28;20052;-71
2023/12/17 03:07:26;;;;;;;11.20;2.47;;;31.10;70.30;;;;;;5049179;28;20033;-71
2023/12/17 03:09:54;;;;;;;13.60;2.13;;;31.30;69.60;;;;;;5050527;28;20028;-73
2023/12/17 03:12:22;;;;;;;9.63;1.85;;;31.60;69.60;;;;;;5047616;28;20021;-71
2023/12/17 03:14:49;;;;;;;9.57;1.75;;;31.30;69.30;;;;;;5046249;28;20041;-70
2023/12/17 03:17:23;;;;;;;10.82;1.90;;;30.60;71.10;;;;;;5050245;28;20946;-70
2023/12/17 03:19:56;;;;;;;11.15;1.90;;;30.40;71.20;;;;;;5051698;28;20037;-72
2023/12/17 03:22:24;;;;;;;10.98;2.30;;;30.10;71.50;;;;;;5039130;28;20078;-72
2023/12/17 03:24:51;;;;;;;9.27;2.00;;;29.80;71.90;;;;;;5047485;28;20816;-72
2023/12/17 03:27:18;;;;;;;7.32;1.80;;;29.40;72.70;;;;;;5046389;28;20091;-71
2023/12/17 03:29:46;;;;;;;7.82;2.50;;;29.40;73.10;;;;;;5057947;28;20432;-72
2023/12/17 03:32:15;;;;;;;9.18;2.15;;;29.40;73.20;;;;;;5052049;28;20112;-72
2023/12/17 03:34:42;;;;;;;10.20;1.70;;;29.60;73.30;;;;;;5054677;28;20025;-73
2023/12/17 03:37:09;;;;;;;9.70;1.83;;;29.80;73.00;;;;;;5049509;28;20029;-73
2023/12/17 03:39:37;;;;;;;11.90;2.28;;;29.90;72.70;;;;;;5050095;28;20119;-71
2023/12/17 03:42:05;;;;;;;11.40;2.20;;;30.10;71.90;;;;;;5052202;28;20040;-71
2023/12/17 03:44:33;;;;;;;11.82;1.98;;;30.40;71.60;;;;;;5037014;28;20123;-72
2023/12/17 03:47:00;;;;;;;8.02;1.70;;;30.10;71.80;;;;;;5056489;28;20127;-72
2023/12/17 03:49:31;;;;;;;10.00;2.17;;;30.10;71.80;;;;;;5053836;28;20484;-70
2023/12/17 03:51:58;;;;;;;12.40;2.13;;;30.10;71.80;;;;;;5050688;28;20040;-73
2023/12/17 03:54:26;;;;;;;9.40;2.40;;;30.00;72.40;;;;;;5047357;28;20489;-73
2023/12/17 03:56:53;;;;;;;8.63;2.75;;;30.10;71.00;;;;;;5048481;28;20067;-73
2023/12/17 03:59:20;;;;;;;4.50;1.65;;;30.40;71.10;;;;;;5053901;28;20132;-73
2023/12/17 04:01:48;;;;;;;15.68;2.55;;;30.00;70.90;;;;;;5046085;28;20037;-72
2023/12/17 04:04:15;;;;;;;9.50;2.00;;;29.40;71.90;;;;;;5037413;28;20174;-72
2023/12/17 04:06:46;;;;;;;5.78;1.48;;;29.20;72.10;;;;;;5036655;28;20123;-72
2023/12/17 04:09:13;;;;;;;10.63;2.10;;;29.30;72.40;;;;;;5045393;28;20557;-72
2023/12/17 04:11:40;;;;;;;6.82;1.65;;;29.20;72.60;;;;;;5049450;28;21001;-73
2023/12/17 04:14:08;;;;;;;17.00;2.10;;;29.30;72.60;;;;;;5048787;28;20537;-73
2023/12/17 04:16:35;;;;;;;8.52;2.30;;;29.40;72.30;;;;;;5043737;28;20025;-73
2023/12/17 04:19:04;;;;;;;8.52;1.50;;;29.30;72.20;;;;;;5049137;28;20021;-73
2023/12/17 04:21:31;;;;;;;8.80;2.22;;;29.20;72.10;;;;;;5050821;28;20027;-73
2023/12/17 04:23:59;;;;;;;15.88;2.88;;;29.10;71.90;;;;;;5022797;28;20047;-72
2023/12/17 04:26:26;;;;;;;8.63;2.38;;;29.10;71.70;;;;;;5038069;28;20431;-72
2023/12/17 04:28:53;;;;;;;10.68;2.08;;;29.00;72.00;;;;;;5043650;28;20025;-71
2023/12/17 04:31:21;;;;;;;10.80;2.08;;;28.90;72.60;;;;;;5041761;28;20048;-71
2023/12/17 04:33:48;;;;;;;11.98;2.20;;;28.80;73.00;;;;;;5033708;28;20037;-72
2023/12/17 04:36:16;;;;;;;14.88;2.33;;;28.70;73.10;;;;;;5054612;28;20047;-71
2023/12/17 04:38:46;;;;;;;11.73;2.92;;;28.70;73.10;;;;;;5054397;28;20033;-71
2023/12/17 04:41:14;;;;;;;11.68;2.30;;;28.60;73.40;;;;;;5048248;28;20032;-73
2023/12/17 04:43:42;;;;;;;10.68;2.05;;;28.60;73.30;;;;;;5030858;28;20043;-74
2023/12/17 04:46:09;;;;;;;9.40;2.22;;;28.60;73.00;;;;;;5057169;28;20037;-72
2023/12/17 04:48:37;;;;;;;11.27;1.98;;;28.40;73.60;;;;;;5034367;28;20377;-72
2023/12/17 04:51:05;;;;;;;12.20;2.28;;;28.20;73.90;;;;;;5052600;28;20044;-70
2023/12/17 04:53:32;;;;;;;8.50;1.77;;;28.20;73.90;;;;;;5030028;28;20021;-70
2023/12/17 04:55:59;;;;;;;9.55;2.00;;;28.10;74.70;;;;;;5047283;28;20054;-72
2023/12/17 04:58:27;;;;;;;8.88;2.13;;;28.10;74.30;;;;;;5053106;28;20496;-72
2023/12/17 05:00:58;;;;;;;10.90;2.30;;;28.20;74.60;;;;;;5030381;28;20036;-73
2023/12/17 05:03:26;;;;;;;9.02;1.80;;;28.20;74.60;;;;;;5053669;28;20028;-71
2023/12/17 05:05:58;;;;;;;10.57;1.90;;;28.00;74.40;;;;;;5054708;28;20468;-73
2023/12/17 05:08:25;;;;;;;9.98;2.10;;;27.60;75.50;;;;;;5057592;28;20037;-74
2023/12/17 05:10:52;;;;;;;9.02;2.65;;;27.60;75.90;;;;;;5053998;28;20025;-72
2023/12/17 05:13:20;;;;;;;11.38;2.55;;;27.70;75.70;;;;;;5046069;28;20105;-73
2023/12/17 05:15:47;;;;;;;11.70;2.30;;;27.70;75.40;;;;;;5037501;28;20091;-72
2023/12/17 05:18:15;;;;;;;15.20;2.55;;;27.70;75.70;;;;;;5056990;28;20024;-72
2023/12/17 05:20:44;;;;;;;11.90;1.85;;;27.50;76.40;;;;;;5054199;28;20362;-73
2023/12/17 05:23:12;;;;;;;12.60;2.58;;;27.60;76.50;;;;;;5050519;28;21682;-73
2023/12/17 05:25:40;;;;;;;8.25;2.00;;;27.70;76.00;;;;;;5057866;28;20021;-74
2023/12/17 05:28:09;;;;;;;7.80;2.08;;;27.60;76.60;;;;;;5050710;28;20106;-73
2023/12/17 05:30:42;;;;;;;11.95;2.40;;;27.60;76.70;;;;;;5055331;28;20075;-74
2023/12/17 05:33:09;;;;;;;12.20;2.40;;;27.70;76.60;;;;;;5038900;28;20057;-73
2023/12/17 05:35:37;;;;;;;11.20;2.45;;;27.70;77.00;;;;;;5052929;28;20048;-74
2023/12/17 05:38:04;;;;;;;10.70;2.30;;;27.60;77.00;;;;;;5029779;28;20037;-73
2023/12/17 05:40:31;;;;;;;14.50;2.50;;;27.50;77.20;;;;;;5058701;28;20524;-74
2023/12/17 05:42:59;;;;;;;8.40;2.30;;;27.60;77.30;;;;;;5050429;28;20030;-73
2023/12/17 05:45:27;;;;;;;9.85;2.08;;;27.50;77.10;;;;;;5045953;28;20037;-72
2023/12/17 05:47:54;;;;;;;15.25;3.40;;;27.60;77.80;;;;;;5029123;28;20509;-72
2023/12/17 05:50:22;;;;;;;14.57;2.15;;;27.60;77.80;;;;;;5044965;28;20055;-69
2023/12/17 05:52:50;;;;;;;11.07;2.10;;;27.50;77.70;;;;;;5030776;28;20033;-71
2023/12/17 05:55:19;;;;;;;13.68;2.60;;;27.30;77.80;;;;;;5057610;28;20095;-71
2023/12/17 05:57:50;;;;;;;12.85;2.22;;;27.20;78.50;;;;;;5027739;28;20549;-71
2023/12/17 06:00:18;;;;;;;14.55;2.08;;;27.20;78.40;;;;;;5032522;28;20148;-72
2023/12/17 06:02:45;;;;;;;12.27;2.22;;;27.30;79.00;;;;;;5058891;28;20032;-70
2023/12/17 06:05:13;;;;;;;15.73;2.20;;;27.40;79.00;;;;;;5053076;28;20021;-72
2023/12/17 06:07:41;;;;;;;9.65;1.90;;;27.40;78.70;;;;;;5051465;28;20040;-72
2023/12/17 06:10:10;;;;;;;9.13;2.20;;;27.20;78.70;;;;;;5040251;28;20033;-71
2023/12/17 06:12:38;;;;;;;9.93;2.50;;;27.10;79.50;;;;;;5032596;28;20478;-73
2023/12/17 06:15:07;;;;;;;7.50;1.65;;;27.20;79.90;;;;;;5052568;28;20029;-72
2023/12/17 06:17:35;;;;;;;20.58;2.72;;;27.20;79.70;;;;;;5055217;28;20465;-72
2023/12/17 06:20:04;;;;;;;14.70;2.40;;;27.20;79.60;;;;;;5054144;28;20032;-72
2023/12/17 06:22:33;;;;;;;11.73;2.53;;;27.20;79.50;;;;;;5051432;28;20040;-72
2023/12/17 06:25:01;;;;;;;20.08;3.08;;;27.20;79.60;;;;;;5054743;28;20032;-71
2023/12/17 06:27:30;;;;;;;21.05;2.40;;;27.10;79.80;;;;;;5053381;28;20036;-71
2023/12/17 06:29:58;;;;;;;11.10;2.20;;;27.10;80.50;;;;;;5056915;28;20123;-72
2023/12/17 06:32:25;;;;;;;8.75;1.75;;;27.10;80.40;;;;;;5042507;28;20035;-71
2023/12/17 06:34:53;;;;;;;16.02;2.53;;;26.90;81.00;;;;;;5054578;28;20458;-71
2023/12/17 06:37:20;;;;;;;11.27;2.78;;;26.80;81.00;;;;;;5051152;28;20044;-72
2023/12/17 06:39:47;;;;;;;11.55;1.90;;;26.90;81.20;;;;;;5055140;28;20029;-72
2023/12/17 06:42:15;;;;;;;15.90;2.47;;;27.00;81.30;;;;;;5055117;28;20035;-72
2023/12/17 06:44:42;;;;;;;12.50;2.35;;;27.10;81.10;;;;;;5050166;28;20037;-72
2023/12/17 06:47:09;;;;;;;13.55;2.15;;;27.10;81.30;;;;;;5051539;28;20033;-72
2023/12/17 06:49:40;;;;;;;13.13;3.00;;;27.10;81.10;;;;;;5050797;28;20025;-72
2023/12/17 06:52:07;;;;;;;11.93;2.83;;;26.80;81.70;;;;;;5049101;28;20151;-71
2023/12/17 06:54:35;;;;;;;12.82;2.40;;;26.90;81.90;;;;;;5042005;28;20041;-72
2023/12/17 06:57:03;;;;;;;19.83;2.40;;;27.00;81.80;;;;;;5041228;28;20020;-69
2023/12/17 06:59:31;;;;;;;241.30;34.00;;;27.00;81.90;;;;;;5050083;28;20043;-71
2023/12/17 07:01:59;;;;;;;18.10;2.95;;;26.70;82.50;;;;;;5045614;28;20036;-70
2023/12/17 07:04:27;;;;;;;11.07;2.97;;;26.60;82.70;;;;;;5047447;28;20120;-71
2023/12/17 07:06:55;;;;;;;9.55;2.15;;;26.80;83.00;;;;;;5048134;28;20080;-71
2023/12/17 07:09:24;;;;;;;15.43;2.42;;;26.80;82.50;;;;;;5048700;28;20314;-70
2023/12/17 07:11:52;;;;;;;40.90;5.75;;;26.80;82.70;;;;;;5047014;28;20036;-70
2023/12/17 07:14:22;;;;;;;14.13;2.83;;;26.90;82.70;;;;;;5054236;28;20017;-70
2023/12/17 07:16:49;;;;;;;13.55;2.33;;;26.80;82.60;;;;;;5051862;28;20024;-69
2023/12/17 07:19:18;;;;;;;18.70;2.80;;;26.80;83.10;;;;;;5036266;28;20122;-71
2023/12/17 07:21:45;;;;;;;11.38;2.25;;;26.60;82.90;;;;;;5054207;28;20036;-71
2023/12/17 07:24:13;;;;;;;22.42;3.72;;;26.40;83.80;;;;;;5050019;28;20024;-71
2023/12/17 07:26:41;;;;;;;12.15;2.40;;;26.30;84.30;;;;;;5050038;28;20130;-71
2023/12/17 07:29:09;;;;;;;50.33;14.32;;;26.40;84.30;;;;;;5046601;28;20021;-70
2023/12/17 07:31:37;;;;;;;13.48;2.60;;;26.50;85.00;;;;;;5049916;28;20074;-71
2023/12/17 07:34:04;;;;;;;12.38;2.45;;;26.50;84.20;;;;;;5028833;28;20115;-72
2023/12/17 07:36:44;;;;;;;11.32;3.00;;;26.40;84.60;;;;;;5034170;28;20029;-71
2023/12/17 07:39:11;;;;;;;15.20;3.00;;;26.40;84.70;;;;;;5051315;28;20029;-70
2023/12/17 07:41:39;;;;;;;9.95;2.13;;;26.20;85.10;;;;;;5045885;28;20429;-71
2023/12/17 07:44:10;;;;;;;12.77;2.10;;;26.30;85.30;;;;;;5050394;28;20028;-70
2023/12/17 07:46:38;;;;;;;12.23;2.70;;;26.40;85.10;;;;;;5048721;28;20037;-70
2023/12/17 07:49:09;;;;;;;8.90;2.10;;;26.50;84.90;;;;;;5051812;28;20040;-70
2023/12/17 07:51:38;;;;;;;12.73;2.47;;;26.50;85.00;;;;;;5051242;28;20110;-70
2023/12/17 07:54:08;;;;;;;12.95;2.60;;;26.40;85.00;;;;;;5054259;28;20475;-71
2023/12/17 07:56:36;;;;;;;15.52;2.38;;;26.30;85.60;;;;;;5049656;28;20027;-71
2023/12/17 07:59:07;;;;;;;21.67;3.03;;;26.10;86.00;;;;;;5048998;28;20373;-71
2023/12/17 08:01:34;;;;;;;10.32;1.95;;;26.10;86.30;;;;;;5050807;28;20040;-71
2023/12/17 08:04:02;;;;;;;16.63;3.13;;;26.20;86.80;;;;;;5046090;28;20025;-71
2023/12/17 08:06:29;;;;;;;11.38;2.40;;;26.30;87.20;;;;;;5034737;28;20041;-70
2023/12/17 08:08:58;;;;;;;16.38;2.38;;;26.20;87.40;;;;;;5050317;28;20017;-71
2023/12/17 08:11:25;;;;;;;14.68;2.80;;;26.00;87.20;;;;;;5045023;28;20108;-71
2023/12/17 08:13:53;;;;;;;10.07;2.60;;;25.80;88.10;;;;;;5052621;28;20105;-69
2023/12/17 08:16:20;;;;;;;15.55;2.80;;;25.90;88.20;;;;;;5034326;28;20460;-69
2023/12/17 08:18:47;;;;;;;13.38;2.70;;;25.90;89.00;;;;;;5046134;28;20017;-70
2023/12/17 08:21:18;;;;;;;19.60;3.35;;;25.90;89.50;;;;;;5046392;28;20037;-71
2023/12/17 08:23:45;;;;;;;16.17;3.83;;;25.70;89.80;;;;;;5043321;28;20128;-71
2023/12/17 08:26:16;;;;;;;12.68;2.75;;;25.70;89.90;;;;;;5050661;28;20040;-70
2023/12/17 08:28:43;;;;;;;17.67;2.60;;;25.70;90.30;;;;;;5049145;28;20087;-70
2023/12/17 08:31:10;;;;;;;11.95;2.60;;;25.80;90.00;;;;;;5043327;28;20029;-71
2023/12/17 08:33:38;;;;;;;17.13;2.88;;;25.60;90.10;;;;;;5047673;28;20013;-70
2023/12/17 08:36:06;;;;;;;18.63;3.47;;;25.50;90.40;;;;;;5059289;28;20033;-69
2023/12/17 08:38:34;;;;;;;15.40;3.38;;;25.40;90.40;;;;;;5048780;28;20029;-69
2023/12/17 08:41:01;;;;;;;20.73;3.42;;;25.40;90.70;;;;;;5050371;28;20033;-71
2023/12/17 08:43:29;;;;;;;15.13;2.97;;;25.30;90.80;;;;;;5051954;28;20087;-71
2023/12/17 08:45:56;;;;;;;13.50;3.22;;;25.20;90.90;;;;;;5051071;28;20025;-72
2023/12/17 08:48:26;;;;;;;18.50;3.30;;;25.10;90.80;;;;;;5056710;28;20032;-72
2023/12/17 08:50:54;;;;;;;15.23;2.25;;;25.00;91.20;;;;;;5056791;28;20055;-72
2023/12/17 08:53:23;;;;;;;15.77;2.65;;;24.90;91.40;;;;;;5030722;28;20389;-74
2023/12/17 08:55:50;;;;;;;11.48;2.63;;;24.90;91.30;;;;;;5038346;28;20032;-73
2023/12/17 08:58:18;;;;;;;14.30;2.65;;;24.90;91.60;;;;;;5054743;28;20416;-72
2023/12/17 09:00:45;;;;;;;13.60;3.20;;;24.90;91.70;;;;;;5037153;28;20032;-72
2023/12/17 09:03:13;;;;;;;11.52;2.17;;;24.70;91.80;;;;;;5059497;28;20101;-72
2023/12/17 09:05:40;;;;;;;19.02;3.15;;;24.80;91.90;;;;;;5056725;28;20030;-72
2023/12/17 09:08:07;;;;;;;12.02;3.03;;;24.80;92.00;;;;;;5036535;28;20131;-72
2023/12/17 09:10:35;;;;;;;19.38;2.97;;;24.70;92.00;;;;;;5055634;28;20521;-71
2023/12/17 09:13:02;;;;;;;17.92;2.75;;;24.60;91.90;;;;;;5054734;28;20021;-73
2023/12/17 09:15:31;;;;;;;19.70;2.53;;;24.40;92.20;;;;;;5056998;28;20024;-73
2023/12/17 09:17:58;;;;;;;16.58;3.00;;;24.50;92.40;;;;;;5057473;28;20036;-72
2023/12/17 09:20:25;;;;;;;14.98;2.17;;;24.60;92.30;;;;;;5059355;28;20021;-73
2023/12/17 09:22:53;;;;;;;17.48;2.28;;;24.60;92.30;;;;;;5052629;28;20025;-72
2023/12/17 09:25:20;;;;;;;14.48;2.58;;;24.60;92.30;;;;;;5054976;28;20484;-73
2023/12/17 09:27:48;;;;;;;19.85;3.25;;;24.60;92.00;;;;;;5056464;28;20045;-72
2023/12/17 09:30:15;;;;;;;13.43;1.98;;;24.70;92.20;;;;;;5056716;28;20051;-73
2023/12/17 09:32:44;;;;;;;10.70;2.13;;;24.60;92.10;;;;;;5054365;28;20025;-71
2023/12/17 09:35:11;;;;;;;15.88;2.92;;;24.60;92.10;;;;;;5059171;28;20039;-71
2023/12/17 09:37:39;;;;;;;14.98;2.15;;;24.50;92.20;;;;;;5053222;28;20040;-72
2023/12/17 09:40:08;;;;;;;12.05;2.28;;;24.40;92.40;;;;;;5062130;28;20021;-72
2023/12/17 09:42:35;;;;;;;18.25;2.35;;;24.30;92.50;;;;;;5055469;28;20020;-72
2023/12/17 09:45:03;;;;;;;14.85;2.38;;;24.30;92.60;;;;;;5050923;28;20462;-72
2023/12/17 09:47:30;;;;;;;12.27;2.83;;;24.30;92.60;;;;;;5059063;28;20474;-73
2023/12/17 09:49:58;;;;;;;14.30;2.72;;;24.30;92.60;;;;;;5050604;28;20463;-72
2023/12/17 09:52:30;;;;;;;13.13;2.08;;;24.30;92.60;;;;;;5049559;28;20565;-73
2023/12/17 09:55:03;;;;;;;16.60;2.08;;;24.10;92.60;;;;;;5059500;28;20024;-72
2023/12/17 09:57:37;;;;;;;14.90;2.05;;;24.00;92.50;;;;;;5040051;28;20371;-73
2023/12/17 10:00:10;;;;;;;13.85;2.70;;;24.00;92.70;;;;;;5054919;28;20036;-73
2023/12/17 10:02:39;;;;;;;18.13;3.42;;;23.90;92.90;;;;;;5053032;28;20025;-72
2023/12/17 10:05:07;;;;;;;21.40;2.42;;;24.00;92.90;;;;;;5046315;28;20100;-72
2023/12/17 10:07:37;;;;;;;15.02;2.75;;;23.90;92.90;;;;;;5048176;28;20029;-72
2023/12/17 10:10:05;;;;;;;15.27;2.83;;;23.80;93.00;;;;;;5049005;28;20028;-72
2023/12/17 10:12:32;;;;;;;17.15;3.10;;;23.80;93.00;;;;;;5051570;28;20049;-72
2023/12/17 10:15:00;;;;;;;16.00;2.90;;;23.80;93.10;;;;;;5051825;28;20104;-72
2023/12/17 10:17:27;;;;;;;15.18;2.15;;;23.80;93.20;;;;;;5056489;28;20035;-72
2023/12/17 10:19:54;;;;;;;14.93;1.98;;;23.70;93.20;;;;;;5049213;28;20032;-72
2023/12/17 10:22:22;;;;;;;20.75;2.65;;;23.80;93.20;;;;;;5032426;28;20029;-72
2023/12/17 10:24:50;;;;;;;14.00;2.00;;;23.60;93.40;;;;;;5060707;28;20028;-72
2023/12/17 10:27:19;;;;;;;17.98;2.58;;;23.70;93.50;;;;;;5047349;28;20155;-72
2023/12/17 10:29:52;;;;;;;17.90;2.78;;;23.60;94.00;;;;;;5058107;28;20082;-71
2023/12/17 10:32:24;;;;;;;15.02;2.15;;;23.60;93.80;;;;;;5052087;28;20021;-73
2023/12/17 10:34:53;;;;;;;17.25;2.55;;;23.70;93.70;;;;;;5051202;28;20063;-72
2023/12/17 10:37:22;;;;;;;12.18;2.75;;;23.60;93.90;;;;;;5053514;28;20111;-73
2023/12/17 10:39:51;;;;;;;14.63;2.75;;;23.60;94.00;;;;;;5054172;28;20020;-73
2023/12/17 10:42:20;;;;;;;17.80;2.58;;;23.60;94.10;;;;;;5058763;28;20039;-72
2023/12/17 10:44:49;;;;;;;12.25;1.92;;;23.50;94.10;;;;;;5057479;28;20470;-72
2023/12/17 10:47:36;;;;;;;14.30;2.63;;;23.60;94.30;;;;;;5053562;28;20433;-72
2023/12/17 10:50:04;;;;;;;17.65;2.08;;;23.50;94.30;;;;;;5054272;28;20032;-72
2023/12/17 10:52:33;;;;;;;11.85;2.00;;;23.40;94.60;;;;;;5054088;28;20079;-72
2023/12/17 10:55:00;;;;;;;14.85;2.67;;;23.40;94.80;;;;;;5055237;28;20025;-72
2023/12/17 10:57:29;;;;;;;19.90;2.88;;;23.50;94.60;;;;;;5054543;28;20469;-71
2023/12/17 10:59:58;;;;;;;21.48;2.63;;;23.40;94.80;;;;;;5032760;28;20025;-72
2023/12/17 11:02:29;;;;;;;21.95;3.10;;;23.30;95.00;;;;;;5053441;28;20417;-73
2023/12/17 11:04:58;;;;;;;17.38;2.40;;;23.30;95.00;;;;;;5056301;28;20424;-72
2023/12/17 11:07:26;;;;;;;15.50;2.13;;;23.50;95.20;;;;;;5056399;28;20045;-72
2023/12/17 11:09:54;;;;;;;13.07;2.13;;;23.50;95.10;;;;;;5055313;28;20020;-72
2023/12/17 11:12:21;;;;;;;15.90;2.28;;;23.50;95.20;;;;;;5053827;28;20442;-72
2023/12/17 11:14:48;;;;;;;17.55;3.22;;;23.60;95.20;;;;;;5051833;28;20040;-72
2023/12/17 11:17:17;;;;;;;10.70;1.95;;;23.50;95.30;;;;;;5051939;28;20025;-72
2023/12/17 11:19:59;;;;;;;23.52;3.08;;;23.50;95.40;;;;;;5056802;28;20363;-72
2023/12/17 11:22:28;;;;;;;20.30;3.80;;;23.40;95.30;;;;;;5051392;28;20102;-72
2023/12/17 11:24:59;;;;;;;15.55;3.03;;;23.40;95.40;;;;;;5057155;28;20096;-73
2023/12/17 11:27:26;;;;;;;17.40;2.70;;;23.50;95.30;;;;;;5033414;28;20037;-73
2023/12/17 11:29:57;;;;;;;15.50;2.17;;;23.50;95.20;;;;;;5034853;28;20025;-72
2023/12/17 11:32:28;;;;;;;15.07;2.83;;;23.40;95.40;;;;;;5051257;28;20027;-73
2023/12/17 11:34:57;;;;;;;22.52;2.80;;;23.30;95.60;;;;;;5052203;28;20460;-72
2023/12/17 11:37:34;;;;;;;15.70;2.95;;;23.40;95.50;;;;;;5049253;28;20071;-73
2023/12/17 11:40:02;;;;;;;18.13;2.95;;;23.50;95.40;;;;;;5038532;28;20132;-73
2023/12/17 11:42:30;;;;;;;10.07;1.73;;;23.60;95.50;;;;;;5047347;28;20031;-72
2023/12/17 11:44:57;;;;;;;14.43;3.38;;;23.50;95.50;;;;;;5049687;28;20374;-73
2023/12/17 11:47:28;;;;;;;8.60;2.20;;;23.40;95.70;;;;;;5040782;28;20417;-73
2023/12/17 11:50:03;;;;;;;15.90;3.33;;;23.30;95.80;;;;;;5043308;28;20025;-72
2023/12/17 11:52:30;;;;;;;13.18;2.63;;;23.20;95.90;;;;;;5029246;28;20040;-73
2023/12/17 11:55:04;;;;;;;15.70;2.30;;;23.10;96.10;;;;;;5040672;28;20025;-73
2023/12/17 11:57:33;;;;;;;18.30;2.88;;;23.00;96.40;;;;;;5051349;28;20037;-72
2023/12/17 12:00:00;;;;;;;15.40;2.70;;;23.00;96.50;;;;;;5056213;28;20017;-72
2023/12/17 12:02:33;;;;;;;17.13;2.40;;;23.10;96.30;;;;;;5046961;28;20028;-72
2023/12/17 12:05:01;;;;;;;15.65;2.40;;;23.00;96.50;;;;;;5052023;28;20036;-72
2023/12/17 12:07:28;;;;;;;21.08;2.78;;;23.00;96.60;;;;;;5051013;28;20162;-73
2023/12/17 12:10:07;;;;;;;15.13;2.03;;;23.00;96.70;;;;;;5054714;28;20031;-72
2023/12/17 12:12:34;;;;;;;16.90;3.00;;;23.00;96.90;;;;;;5054877;28;20091;-72
2023/12/17 12:15:03;;;;;;;15.10;2.30;;;23.10;96.70;;;;;;5051799;28;20025;-72
2023/12/17 12:17:40;;;;;;;15.13;2.38;;;22.90;96.70;;;;;;5054508;28;20043;-72
2023/12/17 12:20:14;;;;;;;14.70;2.65;;;22.90;97.00;;;;;;5060117;28;20021;-72
2023/12/17 12:22:43;;;;;;;15.70;2.30;;;22.80;97.10;;;;;;5054173;28;20032;-72
2023/12/17 12:25:12;;;;;;;19.95;2.60;;;22.80;97.20;;;;;;5059717;28;20078;-72
2023/12/17 12:27:40;;;;;;;15.13;2.17;;;22.70;97.20;;;;;;5059610;28;20041;-72
2023/12/17 12:30:23;;;;;;;14.77;3.33;;;22.70;97.40;;;;;;5056983;28;20068;-73
2023/12/17 12:32:50;;;;;;;16.27;2.45;;;22.70;97.50;;;;;;5059917;28;20025;-73
2023/12/17 12:35:28;;;;;;;23.15;3.50;;;22.70;97.50;;;;;;5057421;28;20024;-72
2023/12/17 12:37:57;;;;;;;21.85;3.63;;;22.60;97.60;;;;;;5059471;28;20021;-73
2023/12/17 12:40:31;;;;;;;20.50;3.22;;;22.50;97.90;;;;;;5059337;28;20032;-73
2023/12/17 12:43:03;;;;;;;24.45;3.92;;;22.50;97.90;;;;;;5053479;28;20035;-73
2023/12/17 12:45:30;;;;;;;13.07;1.90;;;22.50;98.00;;;;;;5056363;28;20224;-73